Time;durP1;ratioP1;P1;durP2;ratioP2;P2;SDS_P1;SDS_P2;PMS_P1;PMS_P2;Temp;Humidity;BMP_temperature;BMP_pressure;BME280_temperature;BME280_humidity;BME280_pressure;Samples;Min_cycle;Max_cycle;Signal;HPM_P1;HPM_P2
2021/05/31 00:26:18;;;;;;;8.40;2.97;;;;;;;;;;5159288;27;20823;31
2021/05/31 00:28:44;;;;;;;10.07;3.10;;;;;;;;;;5159668;27;19985;-70
2021/05/31 00:31:13;;;;;;;11.77;3.60;;;;;;;;;;5159421;27;20521;-69
2021/05/31 00:33:40;;;;;;;5.30;3.00;;;;;;;;;;5160022;27;20501;-69
2021/05/31 00:36:09;;;;;;;8.68;3.47;;;;;;;;;;5159975;27;20082;-69
2021/05/31 00:38:35;;;;;;;7.87;3.33;;;;;;;;;;5159973;27;20480;-69
2021/05/31 00:41:03;;;;;;;7.72;3.80;;;;;;;;;;5160143;27;20098;-69
2021/05/31 00:43:33;;;;;;;7.57;3.03;;;;;;;;;;5159798;27;20086;-69
2021/05/31 00:46:01;;;;;;;6.87;3.15;;;;;;;;;;5160001;27;20087;-69
2021/05/31 00:48:27;;;;;;;7.32;3.30;;;;;;;;;;5141200;27;20176;-69
2021/05/31 00:50:54;;;;;;;5.72;3.35;;;;;;;;;;5141361;27;20154;-68
2021/05/31 00:53:20;;;;;;;7.18;3.62;;;;;;;;;;5159861;27;20146;-68
2021/05/31 00:55:46;;;;;;;10.93;3.50;;;;;;;;;;5159877;27;20082;-68
2021/05/31 00:58:12;;;;;;;9.77;4.07;;;;;;;;;;5140889;27;20086;-68
2021/05/31 01:00:38;;;;;;;9.50;4.00;;;;;;;;;;5159870;27;20592;-69
2021/05/31 01:03:04;;;;;;;7.68;2.90;;;;;;;;;;5160178;27;20418;-69
2021/05/31 01:05:30;;;;;;;5.60;3.70;;;;;;;;;;5160110;27;20096;-68
2021/05/31 01:07:59;;;;;;;6.57;3.87;;;;;;;;;;5159780;27;20097;-68
2021/05/31 01:10:47;;;;;;;11.35;4.65;;;;;;;;;;5141484;27;20102;-68
2021/05/31 01:13:40;;;;;;;6.32;3.20;;;;;;;;;;5140753;27;20067;-68
2021/05/31 01:16:26;;;;;;;7.55;2.97;;;;;;;;;;5143684;27;20176;-68
2021/05/31 01:18:52;;;;;;;6.85;3.33;;;;;;;;;;5159327;27;20078;-67
2021/05/31 01:21:30;;;;;;;10.38;4.00;;;;;;;;;;5141067;27;20082;-68
2021/05/31 01:24:28;;;;;;;9.20;3.80;;;;;;;;;;5159722;27;20086;-69
2021/05/31 01:27:07;;;;;;;7.35;3.60;;;;;;;;;;5143583;27;20153;-68
2021/05/31 01:29:32;;;;;;;7.85;3.37;;;;;;;;;;5141757;27;20078;-68
2021/05/31 01:32:00;;;;;;;12.68;4.12;;;;;;;;;;5159816;27;20097;-68
2021/05/31 01:34:28;;;;;;;7.03;3.22;;;;;;;;;;5140624;27;20493;-68
2021/05/31 01:37:05;;;;;;;9.73;4.87;;;;;;;;;;5140610;27;20501;-68
2021/05/31 01:39:32;;;;;;;11.00;5.37;;;;;;;;;;5141107;27;20094;-69
2021/05/31 01:41:59;;;;;;;8.15;4.35;;;;;;;;;;5140628;27;20090;-69
2021/05/31 01:44:25;;;;;;;11.50;4.50;;;;;;;;;;5140675;27;20082;-69
2021/05/31 01:46:51;;;;;;;5.45;4.10;;;;;;;;;;5140298;27;20090;-70
2021/05/31 01:49:17;;;;;;;9.18;4.25;;;;;;;;;;5140854;27;20410;-69
2021/05/31 01:51:43;;;;;;;6.18;3.85;;;;;;;;;;5140554;27;20181;-69
2021/05/31 01:54:10;;;;;;;7.00;3.75;;;;;;;;;;5140473;27;20504;-70
2021/05/31 01:56:36;;;;;;;5.25;3.37;;;;;;;;;;5140561;27;20539;-70
2021/05/31 01:59:03;;;;;;;5.60;3.47;;;;;;;;;;5140614;27;20079;-69
2021/05/31 02:01:29;;;;;;;4.20;3.05;;;;;;;;;;5140524;27;20113;-69
2021/05/31 02:03:55;;;;;;;6.70;3.37;;;;;;;;;;5140472;27;20074;-69
2021/05/31 02:06:21;;;;;;;6.10;3.80;;;;;;;;;;5159220;27;20193;-69
2021/05/31 02:08:46;;;;;;;7.10;3.58;;;;;;;;;;5159496;27;20082;-68
2021/05/31 02:11:29;;;;;;;6.30;4.20;;;;;;;;;;5159157;27;20074;-69
2021/05/31 02:13:57;;;;;;;5.90;4.05;;;;;;;;;;5140627;27;20078;-68
2021/05/31 02:16:26;;;;;;;5.97;3.90;;;;;;;;;;5140513;27;20176;-69
2021/05/31 02:18:52;;;;;;;5.32;4.28;;;;;;;;;;5140432;27;20109;-67
2021/05/31 02:21:18;;;;;;;9.43;4.78;;;;;;;;;;5159306;27;20091;-67
2021/05/31 02:23:45;;;;;;;19.23;8.95;;;;;;;;;;5140324;27;20092;-67
2021/05/31 02:26:13;;;;;;;8.75;4.47;;;;;;;;;;5158971;27;20082;-67
2021/05/31 02:28:39;;;;;;;7.78;4.40;;;;;;;;;;5158906;27;20108;-67
2021/05/31 02:31:08;;;;;;;7.87;4.43;;;;;;;;;;5159171;27;20493;-67
2021/05/31 02:33:34;;;;;;;14.23;4.90;;;;;;;;;;5159441;27;20164;-67
2021/05/31 02:36:01;;;;;;;8.15;4.62;;;;;;;;;;5140190;27;20078;-69
2021/05/31 02:38:27;;;;;;;6.40;4.20;;;;;;;;;;5140504;27;20079;-68
2021/05/31 02:40:53;;;;;;;9.98;4.70;;;;;;;;;;5159151;27;20117;-69
2021/05/31 02:43:19;;;;;;;7.68;4.30;;;;;;;;;;5140130;27;20100;-68
2021/05/31 02:45:45;;;;;;;26.55;6.00;;;;;;;;;;5159282;27;20492;-68
2021/05/31 02:48:11;;;;;;;11.88;4.97;;;;;;;;;;5140093;27;20486;-68
2021/05/31 02:50:36;;;;;;;9.40;4.45;;;;;;;;;;5140547;27;20189;-68
2021/05/31 02:53:02;;;;;;;9.27;4.87;;;;;;;;;;5159181;27;20094;-68
2021/05/31 02:55:29;;;;;;;15.55;5.75;;;;;;;;;;5159158;27;20505;-68
2021/05/31 02:57:55;;;;;;;13.27;4.78;;;;;;;;;;5159256;27;20078;-67
2021/05/31 03:00:23;;;;;;;9.60;3.90;;;;;;;;;;5158991;27;20098;-69
2021/05/31 03:02:49;;;;;;;10.95;4.78;;;;;;;;;;5159170;27;20090;-68
2021/05/31 03:05:19;;;;;;;9.75;4.80;;;;;;;;;;5158329;27;20090;-68
2021/05/31 03:07:45;;;;;;;8.65;4.80;;;;;;;;;;5156751;27;20434;-68
2021/05/31 03:10:12;;;;;;;7.45;4.43;;;;;;;;;;5157287;27;20098;-68
2021/05/31 03:12:39;;;;;;;9.75;3.97;;;;;;;;;;5156594;27;20097;-68
2021/05/31 03:15:07;;;;;;;6.53;4.70;;;;;;;;;;5157124;27;20089;-69
2021/05/31 03:17:32;;;;;;;8.63;4.40;;;;;;;;;;5157398;27;20082;-66
2021/05/31 03:19:59;;;;;;;5.93;4.20;;;;;;;;;;5157742;27;20104;-68
2021/05/31 03:22:25;;;;;;;8.80;4.90;;;;;;;;;;5158366;27;20118;-68
2021/05/31 03:24:52;;;;;;;6.68;4.10;;;;;;;;;;5158975;27;20430;-71
2021/05/31 03:27:18;;;;;;;8.35;4.12;;;;;;;;;;5123948;27;20070;-68
2021/05/31 03:29:43;;;;;;;15.32;4.57;;;;;;;;;;5160238;27;20399;-67
2021/05/31 03:32:09;;;;;;;6.68;3.95;;;;;;;;;;5160462;27;20093;-70
2021/05/31 03:34:35;;;;;;;6.80;4.00;;;;;;;;;;5160353;27;20094;-69
2021/05/31 03:37:02;;;;;;;10.48;4.85;;;;;;;;;;5165336;27;20093;-68
2021/05/31 03:39:27;;;;;;;6.70;4.22;;;;;;;;;;5160353;27;20086;-68
2021/05/31 03:41:54;;;;;;;7.53;4.60;;;;;;;;;;5160304;27;20089;-68
2021/05/31 03:44:20;;;;;;;7.32;4.78;;;;;;;;;;5160221;27;20086;-70
2021/05/31 03:46:46;;;;;;;6.65;4.78;;;;;;;;;;5160399;27;20087;-67
2021/05/31 03:49:12;;;;;;;10.60;4.57;;;;;;;;;;5141512;27;20098;-67
2021/05/31 03:51:38;;;;;;;7.85;4.75;;;;;;;;;;5160133;27;20434;-67
2021/05/31 03:54:04;;;;;;;7.75;5.07;;;;;;;;;;5160529;27;20085;-67
2021/05/31 03:56:30;;;;;;;8.90;4.30;;;;;;;;;;5160074;27;20074;-68
2021/05/31 03:58:56;;;;;;;8.18;4.95;;;;;;;;;;5160127;27;20584;-68
2021/05/31 04:01:22;;;;;;;10.25;4.30;;;;;;;;;;5159890;27;20096;-68
2021/05/31 04:03:48;;;;;;;8.50;4.50;;;;;;;;;;5140972;27;20094;-67
2021/05/31 04:11:37;;;;;;;7.00;4.37;;;;;;;;;;5160143;27;20134;-67
2021/05/31 04:14:12;;;;;;;6.50;4.03;;;;;;;;;;5160110;27;20101;-67
2021/05/31 04:16:40;;;;;;;13.20;4.80;;;;;;;;;;5160319;27;20074;-67
2021/05/31 04:19:06;;;;;;;6.93;4.80;;;;;;;;;;5142088;27;20085;-67
2021/05/31 04:21:33;;;;;;;8.65;4.68;;;;;;;;;;5172206;27;20096;-68
2021/05/31 04:23:59;;;;;;;7.82;5.18;;;;;;;;;;5172988;27;20077;-67
2021/05/31 04:26:25;;;;;;;11.15;4.97;;;;;;;;;;5157615;27;20070;-66
2021/05/31 04:28:51;;;;;;;8.98;5.10;;;;;;;;;;5171116;27;20090;-67
2021/05/31 04:31:17;;;;;;;9.82;5.20;;;;;;;;;;5161027;27;20172;-67
2021/05/31 04:33:43;;;;;;;6.93;4.25;;;;;;;;;;5142092;27;20174;-67
2021/05/31 04:36:09;;;;;;;9.32;6.10;;;;;;;;;;5160702;27;20094;-68
2021/05/31 04:38:35;;;;;;;11.40;5.47;;;;;;;;;;5161226;27;20118;-68
2021/05/31 04:41:02;;;;;;;7.87;5.20;;;;;;;;;;5161160;27;20090;-68
2021/05/31 04:43:28;;;;;;;9.90;5.28;;;;;;;;;;5160767;27;20069;-68
2021/05/31 04:45:54;;;;;;;8.90;5.10;;;;;;;;;;5161109;27;20105;-68
2021/05/31 04:48:19;;;;;;;8.18;5.10;;;;;;;;;;5161130;27;20423;-68
2021/05/31 04:50:45;;;;;;;8.27;5.43;;;;;;;;;;5161278;27;20524;-68
2021/05/31 04:53:11;;;;;;;9.27;4.62;;;;;;;;;;5160951;27;20177;-68
2021/05/31 04:55:38;;;;;;;12.95;4.97;;;;;;;;;;5161609;27;20089;-68
2021/05/31 04:58:04;;;;;;;9.02;5.97;;;;;;;;;;5162200;27;20169;-67
2021/05/31 05:00:30;;;;;;;8.98;5.82;;;;;;;;;;5162032;27;20196;-67
2021/05/31 05:02:56;;;;;;;10.80;5.43;;;;;;;;;;5161114;27;20504;-68
2021/05/31 05:05:22;;;;;;;8.80;5.00;;;;;;;;;;5142973;27;20113;-69
2021/05/31 05:07:48;;;;;;;8.63;5.45;;;;;;;;;;5160441;27;20441;-67
2021/05/31 05:10:21;;;;;;;12.37;6.70;;;;;;;;;;5160147;27;20094;-67
2021/05/31 05:12:51;;;;;;;13.40;5.95;;;;;;;;;;5160116;27;20098;-68
2021/05/31 05:15:17;;;;;;;9.32;5.62;;;;;;;;;;5159964;27;20094;-68
2021/05/31 05:17:44;;;;;;;7.03;4.65;;;;;;;;;;5160431;27;20078;-68
2021/05/31 05:20:10;;;;;;;12.98;5.28;;;;;;;;;;5161274;27;20496;-68
2021/05/31 05:22:37;;;;;;;11.48;5.47;;;;;;;;;;5160870;27;20090;-68
2021/05/31 05:25:03;;;;;;;10.48;5.28;;;;;;;;;;5160591;27;20078;-68
2021/05/31 05:27:29;;;;;;;10.90;5.12;;;;;;;;;;5137814;27;20107;-69
2021/05/31 05:29:55;;;;;;;13.55;6.15;;;;;;;;;;5139849;27;20081;-68
2021/05/31 05:32:21;;;;;;;10.23;6.60;;;;;;;;;;5137844;27;20090;-68
2021/05/31 05:34:48;;;;;;;11.88;5.60;;;;;;;;;;5139587;27;20091;-68
2021/05/31 05:37:32;;;;;;;8.95;6.12;;;;;;;;;;5139238;27;20070;-68
2021/05/31 05:40:21;;;;;;;17.80;7.00;;;;;;;;;;5139605;27;20087;-68
2021/05/31 05:43:08;;;;;;;9.02;5.53;;;;;;;;;;5137590;27;20156;-68
2021/05/31 05:45:53;;;;;;;10.18;6.18;;;;;;;;;;5139032;27;20141;-68
2021/05/31 05:48:19;;;;;;;13.48;6.53;;;;;;;;;;5138676;27;20094;-68
2021/05/31 05:50:45;;;;;;;15.60;6.12;;;;;;;;;;5137181;27;20195;-68
2021/05/31 05:53:11;;;;;;;10.52;6.20;;;;;;;;;;5138465;27;20093;-68
2021/05/31 05:55:37;;;;;;;14.45;7.32;;;;;;;;;;5137059;27;20592;-68
2021/05/31 05:58:03;;;;;;;15.73;6.70;;;;;;;;;;5139168;27;20070;-68
2021/05/31 06:00:30;;;;;;;9.82;6.15;;;;;;;;;;5139189;27;20497;-68
2021/05/31 06:02:56;;;;;;;11.55;6.47;;;;;;;;;;5139084;27;20592;-68
2021/05/31 06:05:22;;;;;;;10.75;6.82;;;;;;;;;;5137700;27;20087;-68
2021/05/31 06:07:48;;;;;;;13.35;5.62;;;;;;;;;;5140324;27;20083;-68
2021/05/31 06:10:15;;;;;;;10.23;6.20;;;;;;;;;;5139438;27;20089;-68
2021/05/31 06:12:40;;;;;;;14.93;6.53;;;;;;;;;;5138989;27;20087;-67
2021/05/31 06:15:07;;;;;;;12.02;7.82;;;;;;;;;;5139133;27;20177;-68
2021/05/31 06:17:33;;;;;;;12.65;7.62;;;;;;;;;;5139453;27;20067;-67
2021/05/31 06:20:02;;;;;;;9.55;6.30;;;;;;;;;;5139699;27;20100;-68
2021/05/31 06:22:32;;;;;;;11.50;6.80;;;;;;;;;;5140289;27;20074;-68
2021/05/31 06:24:59;;;;;;;16.52;6.93;;;;;;;;;;5137918;27;20097;-69
2021/05/31 06:27:25;;;;;;;9.32;5.97;;;;;;;;;;5140341;27;20180;-68
2021/05/31 06:29:51;;;;;;;10.05;7.00;;;;;;;;;;5160199;27;20101;-69
2021/05/31 06:32:17;;;;;;;13.00;6.82;;;;;;;;;;5159802;27;20521;-66
2021/05/31 06:34:43;;;;;;;11.05;6.72;;;;;;;;;;5159810;27;20090;-67
2021/05/31 06:37:09;;;;;;;11.40;6.97;;;;;;;;;;5159721;27;20187;-67
2021/05/31 06:39:35;;;;;;;11.12;6.15;;;;;;;;;;5140791;27;20082;-67
2021/05/31 06:42:03;;;;;;;21.05;7.57;;;;;;;;;;5139958;27;20164;-68
2021/05/31 06:44:28;;;;;;;13.15;6.78;;;;;;;;;;5159363;27;20102;-67
2021/05/31 06:46:54;;;;;;;13.62;6.72;;;;;;;;;;5158884;27;20099;-68
2021/05/31 06:49:20;;;;;;;11.25;6.87;;;;;;;;;;5158962;27;20117;-68
2021/05/31 06:51:46;;;;;;;12.45;6.78;;;;;;;;;;5139991;27;20488;-69
2021/05/31 06:54:12;;;;;;;9.73;6.20;;;;;;;;;;5159159;27;20087;-68
2021/05/31 06:56:38;;;;;;;12.68;6.87;;;;;;;;;;5158854;27;20563;-68
2021/05/31 06:59:04;;;;;;;8.30;5.95;;;;;;;;;;5139948;27;20569;-69
2021/05/31 07:01:29;;;;;;;8.93;6.03;;;;;;;;;;5158662;27;20106;-68
2021/05/31 07:03:55;;;;;;;14.35;6.82;;;;;;;;;;5158829;27;20094;-69
2021/05/31 07:06:21;;;;;;;11.50;7.10;;;;;;;;;;5158740;27;20086;-68
2021/05/31 07:08:48;;;;;;;16.45;6.43;;;;;;;;;;5158744;27;20191;-68
2021/05/31 07:11:17;;;;;;;10.68;6.53;;;;;;;;;;5158670;27;20161;-69
2021/05/31 07:13:43;;;;;;;11.25;5.70;;;;;;;;;;5158790;27;20177;-68
2021/05/31 07:16:09;;;;;;;11.90;6.90;;;;;;;;;;5158772;27;20097;-67
2021/05/31 07:18:35;;;;;;;8.48;5.97;;;;;;;;;;5158739;27;20106;-68
2021/05/31 07:21:01;;;;;;;12.55;6.70;;;;;;;;;;5158689;27;20102;-68
2021/05/31 07:23:27;;;;;;;9.52;6.40;;;;;;;;;;5158914;27;20400;-67
2021/05/31 07:25:53;;;;;;;9.07;6.10;;;;;;;;;;5139808;27;20098;-68
2021/05/31 07:28:19;;;;;;;9.43;7.18;;;;;;;;;;5158543;27;20175;-67
2021/05/31 07:30:45;;;;;;;11.70;6.60;;;;;;;;;;5158753;27;20100;-68
2021/05/31 07:33:13;;;;;;;11.68;7.03;;;;;;;;;;5158493;27;20091;-68
2021/05/31 07:35:39;;;;;;;10.35;6.65;;;;;;;;;;5159003;27;20070;-68
2021/05/31 07:38:05;;;;;;;9.77;6.95;;;;;;;;;;5158860;27;20411;-68
2021/05/31 07:40:31;;;;;;;9.93;6.40;;;;;;;;;;5159125;27;20082;-68
2021/05/31 07:42:57;;;;;;;10.48;6.85;;;;;;;;;;5158524;27;20097;-68
2021/05/31 07:45:23;;;;;;;9.45;6.75;;;;;;;;;;5158647;27;20097;-68
2021/05/31 07:47:49;;;;;;;8.93;6.18;;;;;;;;;;5158654;27;20098;-68
2021/05/31 07:50:15;;;;;;;12.57;6.10;;;;;;;;;;5158697;27;20153;-68
2021/05/31 07:52:41;;;;;;;8.95;6.57;;;;;;;;;;5158439;27;20066;-67
2021/05/31 07:55:11;;;;;;;8.50;6.75;;;;;;;;;;5158939;27;20169;-68
2021/05/31 07:57:37;;;;;;;10.00;6.62;;;;;;;;;;5158568;27;20201;-68
2021/05/31 08:00:05;;;;;;;13.05;7.25;;;;;;;;;;5158756;27;20074;-68
2021/05/31 08:02:31;;;;;;;7.68;6.53;;;;;;;;;;5158764;27;20081;-68
2021/05/31 08:04:57;;;;;;;10.85;7.25;;;;;;;;;;5139914;27;20082;-68
2021/05/31 08:07:22;;;;;;;8.90;6.85;;;;;;;;;;5159925;27;20466;-68
2021/05/31 08:09:48;;;;;;;10.40;7.10;;;;;;;;;;5159895;27;20528;-67
2021/05/31 08:12:14;;;;;;;10.02;7.45;;;;;;;;;;5141107;27;20078;-68
2021/05/31 08:14:40;;;;;;;9.73;6.68;;;;;;;;;;5160282;27;20104;-68
2021/05/31 08:17:06;;;;;;;8.35;6.45;;;;;;;;;;5141121;27;20086;-68
2021/05/31 08:19:32;;;;;;;9.98;6.50;;;;;;;;;;5159945;27;20094;-68
2021/05/31 08:22:01;;;;;;;16.73;6.00;;;;;;;;;;5159983;27;20109;-68
2021/05/31 08:24:27;;;;;;;9.70;6.95;;;;;;;;;;5141412;27;20059;-68
2021/05/31 08:26:53;;;;;;;7.53;6.55;;;;;;;;;;5140940;27;20096;-68
2021/05/31 08:29:21;;;;;;;8.13;6.95;;;;;;;;;;5159973;27;20474;-68
2021/05/31 08:31:48;;;;;;;10.52;6.90;;;;;;;;;;5159780;27;20481;-68
2021/05/31 08:34:14;;;;;;;8.68;6.85;;;;;;;;;;5159724;27;20078;-68
2021/05/31 08:36:41;;;;;;;11.07;7.28;;;;;;;;;;5140678;27;20493;-69
2021/05/31 08:39:07;;;;;;;8.57;6.53;;;;;;;;;;5159771;27;20083;-69
2021/05/31 08:41:33;;;;;;;10.43;6.12;;;;;;;;;;5159617;27;20092;-68
2021/05/31 08:43:59;;;;;;;8.65;6.80;;;;;;;;;;5140778;27;20100;-69
2021/05/31 08:46:25;;;;;;;9.45;6.30;;;;;;;;;;5159640;27;20268;-68
2021/05/31 08:48:51;;;;;;;9.07;6.68;;;;;;;;;;5159627;27;20506;-68
2021/05/31 08:51:19;;;;;;;7.93;6.30;;;;;;;;;;5141200;27;20090;-68
2021/05/31 08:53:45;;;;;;;7.87;5.95;;;;;;;;;;5141150;27;20077;-68
2021/05/31 08:56:11;;;;;;;7.70;6.18;;;;;;;;;;5159633;27;20077;-68
2021/05/31 08:58:37;;;;;;;9.02;5.45;;;;;;;;;;5159813;27;20102;-68
2021/05/31 09:01:03;;;;;;;9.32;5.50;;;;;;;;;;5159686;27;20158;-68
2021/05/31 09:03:29;;;;;;;6.10;4.93;;;;;;;;;;5159374;27;20120;-68
2021/05/31 09:05:59;;;;;;;11.27;6.20;;;;;;;;;;5140732;27;20090;-68
2021/05/31 09:08:25;;;;;;;8.25;5.40;;;;;;;;;;5159820;27;20078;-69
2021/05/31 09:10:56;;;;;;;9.45;5.87;;;;;;;;;;5159582;27;20207;-68
2021/05/31 09:13:35;;;;;;;8.77;5.62;;;;;;;;;;5159974;27;20082;-68
2021/05/31 09:16:16;;;;;;;9.15;4.70;;;;;;;;;;5159722;27;20401;-69
2021/05/31 09:19:06;;;;;;;7.70;5.28;;;;;;;;;;5159732;27;20101;-69
2021/05/31 09:21:33;;;;;;;11.85;5.55;;;;;;;;;;5160641;27;20497;-68
2021/05/31 09:24:04;;;;;;;8.20;5.68;;;;;;;;;;5160508;27;20070;-68
2021/05/31 09:26:30;;;;;;;6.47;5.03;;;;;;;;;;5160698;27;20102;-69
2021/05/31 09:28:57;;;;;;;6.65;5.30;;;;;;;;;;5141824;27;20162;-69
2021/05/31 09:31:24;;;;;;;9.20;5.82;;;;;;;;;;5161270;27;20090;-68
2021/05/31 09:34:04;;;;;;;9.27;5.43;;;;;;;;;;5176241;27;20102;-68
2021/05/31 09:36:31;;;;;;;11.15;5.85;;;;;;;;;;5179320;27;20066;-68
2021/05/31 09:38:57;;;;;;;6.47;4.90;;;;;;;;;;5178982;27;20159;-68
2021/05/31 09:41:28;;;;;;;13.98;5.35;;;;;;;;;;5173302;27;20097;-67
2021/05/31 09:43:58;;;;;;;7.62;5.28;;;;;;;;;;5162522;27;20085;-67
2021/05/31 09:46:42;;;;;;;7.20;5.15;;;;;;;;;;5161296;27;20070;-68
2021/05/31 09:49:22;;;;;;;5.18;4.55;;;;;;;;;;5160518;27;20074;-68
2021/05/31 09:51:52;;;;;;;7.97;4.15;;;;;;;;;;5160032;27;20098;-68
2021/05/31 09:54:31;;;;;;;6.87;4.72;;;;;;;;;;5159711;27;20098;-69
2021/05/31 09:56:58;;;;;;;8.77;4.60;;;;;;;;;;5160038;27;20501;-68
2021/05/31 09:59:28;;;;;;;6.97;4.00;;;;;;;;;;5159641;27;20105;-69
2021/05/31 10:01:55;;;;;;;4.75;3.87;;;;;;;;;;5159206;27;20191;-69
2021/05/31 10:04:32;;;;;;;6.18;4.10;;;;;;;;;;5159518;27;20082;-69
2021/05/31 10:07:14;;;;;;;6.47;4.50;;;;;;;;;;5159411;27;20065;-70
2021/05/31 10:09:40;;;;;;;5.22;3.87;;;;;;;;;;5143362;27;20159;-69
2021/05/31 10:12:06;;;;;;;4.45;3.65;;;;;;;;;;5140579;27;20086;-69
2021/05/31 10:14:32;;;;;;;5.45;3.60;;;;;;;;;;5160930;27;20106;-68
2021/05/31 10:16:59;;;;;;;5.45;4.12;;;;;;;;;;5159244;27;20618;-69
2021/05/31 10:19:25;;;;;;;6.12;4.03;;;;;;;;;;5140797;27;20125;-70
2021/05/31 10:21:51;;;;;;;7.43;4.60;;;;;;;;;;5141094;27;20505;-69
2021/05/31 10:24:17;;;;;;;7.93;3.97;;;;;;;;;;5140423;27;20106;-70
2021/05/31 10:26:43;;;;;;;5.07;4.00;;;;;;;;;;5159337;27;20074;-68
2021/05/31 10:29:09;;;;;;;6.93;3.92;;;;;;;;;;5136548;27;20486;-68
2021/05/31 10:31:43;;;;;;;7.03;4.10;;;;;;;;;;5138402;27;20087;-68
2021/05/31 10:34:17;;;;;;;5.20;4.05;;;;;;;;;;5136886;27;20078;-68
2021/05/31 10:36:45;;;;;;;7.00;4.28;;;;;;;;;;5137425;27;20067;-68
2021/05/31 10:39:20;;;;;;;4.95;3.55;;;;;;;;;;5141652;27;20082;-68
2021/05/31 10:41:48;;;;;;;4.97;3.70;;;;;;;;;;5138867;27;20419;-67
2021/05/31 10:44:18;;;;;;;4.70;3.78;;;;;;;;;;5137139;27;20304;-67
2021/05/31 10:46:45;;;;;;;4.75;3.90;;;;;;;;;;5140600;27;20077;-68
2021/05/31 10:49:20;;;;;;;4.97;4.03;;;;;;;;;;5138352;27;20172;-68
2021/05/31 10:51:45;;;;;;;;;;;;;;;;;;5138778;27;20098;-68
2021/05/31 10:54:15;;;;;;;5.55;3.97;;;;;;;;;;5138226;27;20069;-68
2021/05/31 10:56:42;;;;;;;4.87;3.92;;;;;;;;;;5139312;27;20094;-69
2021/05/31 10:59:08;;;;;;;6.85;3.80;;;;;;;;;;5138238;27;20093;-67
2021/05/31 11:01:40;;;;;;;7.72;3.60;;;;;;;;;;5138758;27;20078;-68
2021/05/31 11:04:21;;;;;;;5.75;3.42;;;;;;;;;;5138090;27;20082;-67
2021/05/31 11:06:48;;;;;;;5.62;3.60;;;;;;;;;;5136531;27;20075;-68
2021/05/31 11:09:15;;;;;;;4.22;3.55;;;;;;;;;;5138178;27;20100;-67
2021/05/31 11:11:49;;;;;;;7.43;4.47;;;;;;;;;;5138175;27;20098;-69
2021/05/31 11:14:17;;;;;;;9.85;4.10;;;;;;;;;;5136531;27;20170;-67
2021/05/31 11:16:56;;;;;;;5.47;4.05;;;;;;;;;;5138197;27;20101;-67
2021/05/31 11:19:32;;;;;;;8.30;4.85;;;;;;;;;;5138329;27;20067;-69
2021/05/31 11:21:58;;;;;;;5.75;3.47;;;;;;;;;;5138339;27;20085;-67
2021/05/31 11:24:24;;;;;;;9.18;3.95;;;;;;;;;;5136250;27;20105;-68
2021/05/31 11:26:50;;;;;;;4.37;3.50;;;;;;;;;;5137861;27;20098;-67
2021/05/31 11:29:16;;;;;;;7.18;3.47;;;;;;;;;;5156605;27;20509;-67
2021/05/31 11:31:45;;;;;;;4.20;3.53;;;;;;;;;;5159023;27;20102;-67
2021/05/31 11:34:11;;;;;;;4.65;3.75;;;;;;;;;;5158713;27;20517;-71
2021/05/31 11:36:38;;;;;;;6.03;3.47;;;;;;;;;;5122911;27;20086;-68
2021/05/31 11:39:17;;;;;;;4.87;4.00;;;;;;;;;;5158880;27;20081;-68
2021/05/31 11:41:43;;;;;;;4.47;3.42;;;;;;;;;;5160019;27;20094;-69
2021/05/31 11:44:13;;;;;;;7.93;3.90;;;;;;;;;;5160489;27;20113;-69
2021/05/31 11:46:53;;;;;;;5.03;3.37;;;;;;;;;;5161618;27;20086;-69
2021/05/31 11:49:20;;;;;;;5.93;3.55;;;;;;;;;;5141665;27;20363;-67
2021/05/31 11:52:00;;;;;;;7.32;4.28;;;;;;;;;;5160214;27;20098;-69
2021/05/31 11:54:27;;;;;;;4.70;3.17;;;;;;;;;;5160159;27;20102;-68
2021/05/31 11:56:53;;;;;;;4.35;3.33;;;;;;;;;;5141346;27;20109;-69
2021/05/31 11:59:19;;;;;;;3.42;3.10;;;;;;;;;;5159818;27;20109;-69
2021/05/31 12:01:54;;;;;;;5.37;3.67;;;;;;;;;;5159862;27;20421;-69
2021/05/31 12:04:20;;;;;;;4.22;3.83;;;;;;;;;;5159897;27;20082;-67
2021/05/31 12:07:00;;;;;;;7.65;3.75;;;;;;;;;;5159726;27;20086;-69
2021/05/31 12:09:26;;;;;;;4.30;3.25;;;;;;;;;;5140853;27;20097;-68
2021/05/31 12:11:52;;;;;;;6.97;4.30;;;;;;;;;;5159810;27;20115;-68
2021/05/31 12:14:23;;;;;;;4.40;3.42;;;;;;;;;;5159707;27;20094;-69
2021/05/31 12:17:00;;;;;;;5.45;3.70;;;;;;;;;;5159641;27;20649;-70
2021/05/31 12:19:26;;;;;;;7.10;3.85;;;;;;;;;;5159668;27;20157;-68
2021/05/31 12:21:59;;;;;;;4.40;3.65;;;;;;;;;;5159857;27;20090;-67
2021/05/31 12:24:30;;;;;;;6.18;3.42;;;;;;;;;;5159778;27;20079;-68
2021/05/31 12:26:58;;;;;;;6.50;3.58;;;;;;;;;;5159754;27;20582;-68
2021/05/31 12:29:40;;;;;;;5.15;3.90;;;;;;;;;;5141334;27;20493;-69
2021/05/31 12:32:07;;;;;;;5.87;4.03;;;;;;;;;;5159654;27;20086;-68
2021/05/31 12:34:33;;;;;;;5.50;3.60;;;;;;;;;;5159865;27;20189;-70
2021/05/31 12:37:00;;;;;;;5.47;4.28;;;;;;;;;;5141232;27;20080;-67
2021/05/31 12:39:26;;;;;;;6.32;4.18;;;;;;;;;;5140966;27;20106;-68
2021/05/31 12:41:52;;;;;;;5.32;4.40;;;;;;;;;;5140795;27;20597;-69
2021/05/31 12:44:18;;;;;;;7.35;4.35;;;;;;;;;;5140547;27;20490;-68
2021/05/31 12:46:44;;;;;;;5.28;3.75;;;;;;;;;;5159682;27;20094;-69
2021/05/31 12:49:15;;;;;;;9.98;3.85;;;;;;;;;;5159774;27;20086;-68
2021/05/31 12:51:53;;;;;;;6.55;3.85;;;;;;;;;;5140773;27;20086;-70
2021/05/31 12:54:19;;;;;;;4.90;3.97;;;;;;;;;;5159875;27;20074;-68
2021/05/31 12:56:46;;;;;;;4.82;3.70;;;;;;;;;;5140735;27;20075;-68
2021/05/31 12:59:12;;;;;;;5.57;4.40;;;;;;;;;;5160055;27;20062;-68
2021/05/31 13:01:43;;;;;;;5.43;4.65;;;;;;;;;;5159888;27;20065;-68
2021/05/31 13:04:09;;;;;;;4.90;4.40;;;;;;;;;;5159770;27;20091;-67
2021/05/31 13:06:41;;;;;;;4.70;4.20;;;;;;;;;;5159744;27;20166;-68
2021/05/31 13:09:09;;;;;;;6.03;4.70;;;;;;;;;;5159575;27;20075;-69
2021/05/31 13:11:45;;;;;;;5.65;4.22;;;;;;;;;;5159337;27;20108;-70
2021/05/31 13:14:24;;;;;;;4.82;4.28;;;;;;;;;;5159451;27;20086;-69
2021/05/31 13:17:03;;;;;;;5.10;3.83;;;;;;;;;;5140582;27;20083;-69
2021/05/31 13:19:30;;;;;;;6.70;4.35;;;;;;;;;;5159907;27;20082;-69
2021/05/31 13:22:04;;;;;;;4.80;3.90;;;;;;;;;;5159360;27;20092;-68
2021/05/31 13:24:31;;;;;;;4.85;3.78;;;;;;;;;;5159677;27;20086;-68
2021/05/31 13:27:08;;;;;;;5.32;4.10;;;;;;;;;;5159339;27;20178;-70
2021/05/31 13:29:34;;;;;;;3.92;3.50;;;;;;;;;;5119686;27;20075;-68
2021/05/31 13:32:05;;;;;;;5.22;4.05;;;;;;;;;;5119889;27;20078;-69
2021/05/31 13:34:37;;;;;;;5.93;3.97;;;;;;;;;;5138822;27;20302;-67
2021/05/31 13:37:10;;;;;;;8.68;4.15;;;;;;;;;;5138889;27;20067;-69
2021/05/31 13:39:36;;;;;;;4.37;3.87;;;;;;;;;;5138614;27;20067;-68
2021/05/31 13:42:02;;;;;;;4.32;3.37;;;;;;;;;;5138834;27;20270;-68
2021/05/31 13:44:28;;;;;;;5.65;3.50;;;;;;;;;;5138516;27;20070;-68
2021/05/31 13:46:54;;;;;;;4.72;4.05;;;;;;;;;;5138884;27;20074;-70
2021/05/31 13:49:22;;;;;;;6.43;3.60;;;;;;;;;;5139035;27;20421;-69
2021/05/31 13:51:50;;;;;;;7.53;3.80;;;;;;;;;;5138463;27;20098;-70
2021/05/31 13:54:18;;;;;;;5.25;3.40;;;;;;;;;;5138359;27;20089;-69
2021/05/31 13:56:44;;;;;;;6.97;3.58;;;;;;;;;;5138421;27;20113;-68
2021/05/31 13:59:10;;;;;;;9.13;3.85;;;;;;;;;;5138669;27;20204;-68
2021/05/31 14:01:36;;;;;;;5.47;3.40;;;;;;;;;;5138673;27;20501;-68
2021/05/31 14:04:02;;;;;;;7.55;3.83;;;;;;;;;;5138596;27;20544;-68
2021/05/31 14:06:28;;;;;;;3.97;3.45;;;;;;;;;;5119438;27;20095;-68
2021/05/31 14:08:56;;;;;;;4.72;3.78;;;;;;;;;;5139201;27;20101;-69
2021/05/31 14:11:23;;;;;;;4.57;3.70;;;;;;;;;;5138581;27;20466;-69
2021/05/31 14:13:50;;;;;;;4.87;3.70;;;;;;;;;;5138567;27;20098;-68
2021/05/31 14:16:19;;;;;;;7.95;3.67;;;;;;;;;;5139065;27;20162;-67
2021/05/31 14:18:52;;;;;;;4.55;3.47;;;;;;;;;;5137971;27;20082;-69
2021/05/31 14:21:21;;;;;;;10.35;3.78;;;;;;;;;;5138740;27;20082;-69
2021/05/31 14:24:00;;;;;;;4.03;3.00;;;;;;;;;;5119635;27;20082;-68
2021/05/31 14:26:45;;;;;;;4.73;3.60;;;;;;;;;;5139209;27;20114;-69
2021/05/31 14:30:07;;;;;;;4.25;3.62;;;;;;;;;;5043597;28;20099;-68
2021/05/31 14:32:40;;;;;;;4.00;3.50;;;;;;;;;;5093030;27;20099;-67
2021/05/31 14:35:07;;;;;;;7.75;3.90;;;;;;;;;;5139116;27;20105;-66
2021/05/31 14:37:33;;;;;;;4.53;3.67;;;;;;;;;;5138683;27;20429;-67
2021/05/31 14:39:59;;;;;;;4.37;3.20;;;;;;;;;;5139827;27;20087;-68
2021/05/31 14:42:25;;;;;;;8.48;3.97;;;;;;;;;;5139038;27;20083;-69
2021/05/31 14:44:51;;;;;;;4.90;3.45;;;;;;;;;;5139356;27;20085;-68
2021/05/31 14:47:17;;;;;;;5.60;4.43;;;;;;;;;;5139232;27;20070;-66
2021/05/31 14:49:43;;;;;;;4.85;3.80;;;;;;;;;;5139027;27;20601;-69
2021/05/31 14:52:09;;;;;;;5.78;3.62;;;;;;;;;;5119712;27;20063;-67
2021/05/31 14:54:35;;;;;;;6.37;3.50;;;;;;;;;;5138301;27;20574;-68
2021/05/31 14:57:01;;;;;;;4.00;3.45;;;;;;;;;;5119603;27;20414;-68
2021/05/31 14:59:28;;;;;;;5.22;3.75;;;;;;;;;;5138661;27;20350;-69
2021/05/31 15:01:54;;;;;;;3.67;3.30;;;;;;;;;;5138283;27;20074;-66
2021/05/31 15:04:20;;;;;;;3.72;3.20;;;;;;;;;;5138323;27;20164;-69
2021/05/31 15:06:47;;;;;;;3.30;3.00;;;;;;;;;;5138742;27;20062;-70
2021/05/31 15:09:13;;;;;;;3.75;3.17;;;;;;;;;;5139277;27;20086;-69
2021/05/31 15:11:41;;;;;;;4.65;3.42;;;;;;;;;;5119963;27;20576;-68
2021/05/31 15:14:07;;;;;;;7.20;3.40;;;;;;;;;;5138500;27;20083;-66
2021/05/31 15:16:33;;;;;;;5.00;3.45;;;;;;;;;;5138354;27;20183;-71
2021/05/31 15:18:59;;;;;;;5.72;3.83;;;;;;;;;;5119736;27;20516;-75